TAM3532 SBSP-SBRJ
Flight info
| Callsign | TAM3532 |
|---|---|
| Flight time | 0h 50m |
| Altitude | 27000 |
| Route | NIBRU UZ171 KEVUN |
| Aircraft | A319/M-SDE3FGHIRWY/LB1 |
Departure
| Time | 2026-05-05 03:18 |
|---|---|
| Airport | Congonhas–Deputado Freitas Nobre Airport (SBSP) |
Arrival
| Time | 2026-05-05 04:09 |
|---|---|
| Airport | Santos Dumont Airport (SBRJ) |
| Time | Latitude | Longitude | Altitude | Speed | Heading |
|---|---|---|---|---|---|
| 2026-05-05 03:00 | -23.62693 | -46.65842 | 2619 ft | 0 kts | 237° |
| 2026-05-05 03:12 | -23.62688 | -46.65834 | 2619 ft | 4 kts | 239° |
| 2026-05-05 03:12 | -23.62677 | -46.65808 | 2619 ft | 4 kts | 269° |
| 2026-05-05 03:12 | -23.62684 | -46.65791 | 2619 ft | 3 kts | 327° |
| 2026-05-05 03:13 | -23.62700 | -46.65780 | 2620 ft | 0 kts | 327° |
| 2026-05-05 03:14 | -23.62696 | -46.65782 | 2620 ft | 3 kts | 332° |
| 2026-05-05 03:15 | -23.62647 | -46.65784 | 2618 ft | 10 kts | 359° |
| 2026-05-05 03:15 | -23.62570 | -46.65820 | 2616 ft | 14 kts | 329° |
| 2026-05-05 03:15 | -23.62482 | -46.65883 | 2612 ft | 17 kts | 326° |
| 2026-05-05 03:15 | -23.62374 | -46.65959 | 2608 ft | 20 kts | 327° |
| 2026-05-05 03:16 | -23.62248 | -46.66044 | 2604 ft | 23 kts | 331° |
| 2026-05-05 03:16 | -23.62113 | -46.66128 | 2593 ft | 14 kts | 331° |
| 2026-05-05 03:16 | -23.62039 | -46.66115 | 2596 ft | 9 kts | 58° |
| 2026-05-05 03:16 | -23.62059 | -46.66066 | 2594 ft | 6 kts | 147° |
| 2026-05-05 03:17 | -23.62063 | -46.66063 | 2594 ft | 0 kts | 148° |
| 2026-05-05 03:18 | -23.62162 | -46.65996 | 2602 ft | 56 kts | 148° |
| 2026-05-05 03:18 | -23.62744 | -46.65589 | 2624 ft | 139 kts | 147° |
| 2026-05-05 03:18 | -23.63639 | -46.64951 | 3158 ft | 157 kts | 146° |
| 2026-05-05 03:18 | -23.64517 | -46.64226 | 3927 ft | 161 kts | 125° |
| 2026-05-05 03:19 | -23.65708 | -46.61814 | 4869 ft | 202 kts | 117° |
| 2026-05-05 03:19 | -23.66419 | -46.60396 | 5176 ft | 225 kts | 119° |
| 2026-05-05 03:19 | -23.67222 | -46.58816 | 5509 ft | 251 kts | 119° |
| 2026-05-05 03:20 | -23.68110 | -46.57071 | 5983 ft | 275 kts | 119° |
| 2026-05-05 03:20 | -23.69059 | -46.55204 | 6707 ft | 287 kts | 120° |
| 2026-05-05 03:20 | -23.70038 | -46.53282 | 7575 ft | 292 kts | 120° |
| 2026-05-05 03:20 | -23.71017 | -46.51320 | 8512 ft | 296 kts | 116° |
| 2026-05-05 03:21 | -23.71651 | -46.49165 | 9456 ft | 301 kts | 100° |
| 2026-05-05 03:21 | -23.71749 | -46.46874 | 10344 ft | 308 kts | 85° |
| 2026-05-05 03:21 | -23.71448 | -46.44468 | 10708 ft | 332 kts | 81° |
| 2026-05-05 03:21 | -23.71076 | -46.41900 | 11110 ft | 351 kts | 81° |
| 2026-05-05 03:22 | -23.70682 | -46.39240 | 11800 ft | 359 kts | 81° |
| 2026-05-05 03:22 | -23.70282 | -46.36534 | 12571 ft | 364 kts | 82° |
| 2026-05-05 03:22 | -23.69883 | -46.33794 | 13350 ft | 368 kts | 82° |
| 2026-05-05 03:22 | -23.69484 | -46.31015 | 14097 ft | 373 kts | 82° |
| 2026-05-05 03:23 | -23.69085 | -46.28202 | 14769 ft | 377 kts | 82° |
| 2026-05-05 03:23 | -23.68683 | -46.25357 | 15434 ft | 382 kts | 82° |
| 2026-05-05 03:23 | -23.68275 | -46.22478 | 16087 ft | 386 kts | 82° |
| 2026-05-05 03:23 | -23.67860 | -46.19567 | 16730 ft | 390 kts | 82° |
| 2026-05-05 03:24 | -23.67437 | -46.16624 | 17366 ft | 395 kts | 82° |
| 2026-05-05 03:24 | -23.67007 | -46.13651 | 17997 ft | 399 kts | 82° |
| 2026-05-05 03:24 | -23.66574 | -46.10647 | 18596 ft | 403 kts | 82° |
| 2026-05-05 03:24 | -23.66139 | -46.07612 | 19141 ft | 407 kts | 82° |
| 2026-05-05 03:25 | -23.65701 | -46.04547 | 19701 ft | 411 kts | 82° |
| 2026-05-05 03:25 | -23.65255 | -46.01455 | 20257 ft | 415 kts | 82° |
| 2026-05-05 03:25 | -23.64812 | -45.98375 | 20815 ft | 418 kts | 82° |
| 2026-05-05 03:25 | -23.64360 | -45.95227 | 21374 ft | 422 kts | 82° |
| 2026-05-05 03:26 | -23.63904 | -45.92046 | 21939 ft | 426 kts | 82° |
| 2026-05-05 03:26 | -23.63442 | -45.88837 | 22497 ft | 430 kts | 82° |
| 2026-05-05 03:26 | -23.62974 | -45.85599 | 23040 ft | 434 kts | 82° |
| 2026-05-05 03:26 | -23.62499 | -45.82332 | 23573 ft | 438 kts | 82° |
| 2026-05-05 03:27 | -23.62017 | -45.79037 | 24034 ft | 442 kts | 82° |
| 2026-05-05 03:27 | -23.61530 | -45.75708 | 24454 ft | 446 kts | 82° |
| 2026-05-05 03:27 | -23.61043 | -45.72350 | 24854 ft | 451 kts | 82° |
| 2026-05-05 03:27 | -23.60550 | -45.68963 | 25244 ft | 454 kts | 82° |
| 2026-05-05 03:28 | -23.60050 | -45.65548 | 25630 ft | 458 kts | 82° |
| 2026-05-05 03:28 | -23.59547 | -45.62109 | 26027 ft | 462 kts | 82° |
| 2026-05-05 03:28 | -23.59038 | -45.58641 | 26422 ft | 465 kts | 82° |
| 2026-05-05 03:28 | -23.58523 | -45.55145 | 26800 ft | 469 kts | 82° |
| 2026-05-05 03:29 | -23.58002 | -45.51621 | 27113 ft | 472 kts | 82° |
| 2026-05-05 03:29 | -23.57480 | -45.48078 | 27192 ft | 475 kts | 82° |
| 2026-05-05 03:29 | -23.56907 | -45.44527 | 27204 ft | 476 kts | 80° |
| 2026-05-05 03:29 | -23.56224 | -45.40991 | 27205 ft | 477 kts | 78° |
| 2026-05-05 03:30 | -23.55459 | -45.37474 | 27211 ft | 477 kts | 77° |
| 2026-05-05 03:30 | -23.54655 | -45.33964 | 27212 ft | 477 kts | 77° |
| 2026-05-05 03:30 | -23.53850 | -45.30455 | 27211 ft | 477 kts | 77° |
| 2026-05-05 03:30 | -23.53063 | -45.26940 | 27206 ft | 477 kts | 77° |
| 2026-05-05 03:31 | -23.52300 | -45.23422 | 27208 ft | 477 kts | 78° |
| 2026-05-05 03:31 | -23.51555 | -45.19904 | 27209 ft | 477 kts | 78° |
| 2026-05-05 03:31 | -23.50816 | -45.16379 | 27204 ft | 477 kts | 78° |
| 2026-05-05 03:31 | -23.50078 | -45.12863 | 27213 ft | 476 kts | 78° |
| 2026-05-05 03:32 | -23.49333 | -45.09346 | 27208 ft | 476 kts | 78° |
| 2026-05-05 03:32 | -23.48586 | -45.05841 | 27202 ft | 475 kts | 78° |
| 2026-05-05 03:32 | -23.47835 | -45.02337 | 27183 ft | 475 kts | 78° |
| 2026-05-05 03:32 | -23.47089 | -44.98878 | 26944 ft | 475 kts | 78° |
| 2026-05-05 03:33 | -23.46334 | -44.95377 | 26699 ft | 475 kts | 78° |
| 2026-05-05 03:33 | -23.45577 | -44.91876 | 26450 ft | 476 kts | 77° |
| 2026-05-05 03:33 | -23.44806 | -44.88372 | 26207 ft | 476 kts | 77° |
| 2026-05-05 03:33 | -23.44027 | -44.84875 | 25970 ft | 474 kts | 77° |
| 2026-05-05 03:34 | -23.43249 | -44.81407 | 25585 ft | 469 kts | 77° |
| 2026-05-05 03:34 | -23.42480 | -44.77966 | 24897 ft | 466 kts | 77° |
| 2026-05-05 03:34 | -23.41716 | -44.74550 | 24209 ft | 463 kts | 77° |
| 2026-05-05 03:34 | -23.40956 | -44.71158 | 23514 ft | 459 kts | 77° |
| 2026-05-05 03:35 | -23.40204 | -44.67798 | 22839 ft | 454 kts | 77° |
| 2026-05-05 03:35 | -23.39463 | -44.64485 | 22246 ft | 448 kts | 77° |
| 2026-05-05 03:35 | -23.38732 | -44.61209 | 21684 ft | 443 kts | 77° |
| 2026-05-05 03:35 | -23.38010 | -44.57972 | 21126 ft | 438 kts | 77° |
| 2026-05-05 03:36 | -23.37293 | -44.54770 | 20597 ft | 434 kts | 77° |
| 2026-05-05 03:36 | -23.36579 | -44.51595 | 20067 ft | 430 kts | 77° |
| 2026-05-05 03:36 | -23.35869 | -44.48444 | 19548 ft | 427 kts | 77° |
| 2026-05-05 03:36 | -23.35164 | -44.45312 | 19031 ft | 425 kts | 77° |
| 2026-05-05 03:37 | -23.34399 | -44.42261 | 18488 ft | 423 kts | 70° |
| 2026-05-05 03:37 | -23.33237 | -44.39330 | 17898 ft | 420 kts | 64° |
| 2026-05-05 03:37 | -23.32006 | -44.36460 | 17336 ft | 417 kts | 64° |
| 2026-05-05 03:37 | -23.30787 | -44.33619 | 16929 ft | 410 kts | 65° |
| 2026-05-05 03:38 | -23.29602 | -44.30863 | 16798 ft | 395 kts | 64° |
| 2026-05-05 03:38 | -23.28458 | -44.28207 | 16679 ft | 380 kts | 64° |
| 2026-05-05 03:38 | -23.27358 | -44.25648 | 16551 ft | 367 kts | 64° |
| 2026-05-05 03:38 | -23.26290 | -44.23170 | 16425 ft | 356 kts | 64° |
| 2026-05-05 03:39 | -23.25255 | -44.20770 | 16231 ft | 347 kts | 64° |
| 2026-05-05 03:39 | -23.24240 | -44.18412 | 15797 ft | 343 kts | 65° |
| 2026-05-05 03:39 | -23.23234 | -44.16078 | 15325 ft | 340 kts | 64° |
| 2026-05-05 03:39 | -23.22233 | -44.13763 | 14885 ft | 336 kts | 64° |
| 2026-05-05 03:40 | -23.21241 | -44.11471 | 14413 ft | 335 kts | 65° |
| 2026-05-05 03:40 | -23.20586 | -44.09957 | 14123 ft | 332 kts | 65° |
| 2026-05-05 03:40 | -23.19611 | -44.07702 | 13550 ft | 328 kts | 64° |
| 2026-05-05 03:40 | -23.18619 | -44.05482 | 12911 ft | 325 kts | 63° |
| 2026-05-05 03:41 | -23.17609 | -44.03289 | 12283 ft | 323 kts | 63° |
| 2026-05-05 03:41 | -23.16599 | -44.01122 | 11673 ft | 320 kts | 63° |
| 2026-05-05 03:41 | -23.15598 | -43.98962 | 11044 ft | 319 kts | 63° |
| 2026-05-05 03:41 | -23.14639 | -43.96796 | 10451 ft | 317 kts | 64° |
| 2026-05-05 03:42 | -23.13722 | -43.94645 | 10118 ft | 311 kts | 65° |
| 2026-05-05 03:42 | -23.12825 | -43.92514 | 9947 ft | 308 kts | 65° |
| 2026-05-05 03:42 | -23.11939 | -43.90413 | 9789 ft | 305 kts | 65° |
| 2026-05-05 03:42 | -23.11055 | -43.88329 | 9623 ft | 303 kts | 65° |
| 2026-05-05 03:43 | -23.10167 | -43.86248 | 9462 ft | 304 kts | 65° |
| 2026-05-05 03:43 | -23.09280 | -43.84173 | 9303 ft | 302 kts | 65° |
| 2026-05-05 03:43 | -23.08394 | -43.82104 | 9144 ft | 302 kts | 65° |
| 2026-05-05 03:43 | -23.07506 | -43.80029 | 8978 ft | 304 kts | 65° |
| 2026-05-05 03:44 | -23.06616 | -43.77955 | 8817 ft | 301 kts | 65° |
| 2026-05-05 03:44 | -23.05730 | -43.75896 | 8651 ft | 301 kts | 65° |
| 2026-05-05 03:44 | -23.04846 | -43.73841 | 8494 ft | 302 kts | 65° |
| 2026-05-05 03:44 | -23.03959 | -43.71776 | 8328 ft | 300 kts | 65° |
| 2026-05-05 03:45 | -23.03080 | -43.69729 | 8174 ft | 299 kts | 65° |
| 2026-05-05 03:45 | -23.02194 | -43.67684 | 7887 ft | 298 kts | 65° |
| 2026-05-05 03:45 | -23.01309 | -43.65658 | 7611 ft | 296 kts | 64° |
| 2026-05-05 03:45 | -23.00425 | -43.63641 | 7222 ft | 297 kts | 65° |
| 2026-05-05 03:46 | -22.99557 | -43.61660 | 6932 ft | 292 kts | 65° |
| 2026-05-05 03:46 | -22.98683 | -43.59672 | 6774 ft | 282 kts | 65° |
| 2026-05-05 03:46 | -22.97876 | -43.57842 | 6637 ft | 263 kts | 65° |
| 2026-05-05 03:46 | -22.97106 | -43.56093 | 6396 ft | 250 kts | 65° |
| 2026-05-05 03:47 | -22.96347 | -43.54374 | 6297 ft | 254 kts | 65° |
| 2026-05-05 03:47 | -22.95589 | -43.52653 | 6159 ft | 253 kts | 65° |
| 2026-05-05 03:47 | -22.94831 | -43.50932 | 6052 ft | 253 kts | 64° |
| 2026-05-05 03:47 | -22.94081 | -43.49198 | 5762 ft | 254 kts | 65° |
| 2026-05-05 03:48 | -22.93354 | -43.47475 | 5500 ft | 249 kts | 65° |
| 2026-05-05 03:48 | -22.92641 | -43.45775 | 5200 ft | 246 kts | 65° |
| 2026-05-05 03:48 | -22.91940 | -43.44107 | 4927 ft | 244 kts | 64° |
| 2026-05-05 03:48 | -22.91238 | -43.42444 | 4683 ft | 241 kts | 64° |
| 2026-05-05 03:49 | -22.90539 | -43.40792 | 4475 ft | 240 kts | 64° |
| 2026-05-05 03:49 | -22.89844 | -43.39152 | 4255 ft | 237 kts | 63° |
| 2026-05-05 03:49 | -22.89173 | -43.37571 | 4065 ft | 230 kts | 64° |
| 2026-05-05 03:49 | -22.88548 | -43.35996 | 3854 ft | 226 kts | 70° |
| 2026-05-05 03:50 | -22.88305 | -43.34324 | 3656 ft | 224 kts | 87° |
| 2026-05-05 03:50 | -22.88363 | -43.32642 | 3459 ft | 221 kts | 89° |
| 2026-05-05 03:50 | -22.88419 | -43.30987 | 3259 ft | 219 kts | 91° |
| 2026-05-05 03:50 | -22.88439 | -43.30409 | 3191 ft | 218 kts | 90° |
| 2026-05-05 03:51 | -22.88494 | -43.28784 | 2986 ft | 214 kts | 90° |
| 2026-05-05 03:51 | -22.88547 | -43.27192 | 2800 ft | 209 kts | 90° |
| 2026-05-05 03:51 | -22.88829 | -43.25695 | 2603 ft | 202 kts | 110° |
| 2026-05-05 03:51 | -22.89349 | -43.24319 | 2356 ft | 196 kts | 110° |
| 2026-05-05 03:52 | -22.89852 | -43.22966 | 2100 ft | 192 kts | 110° |
| 2026-05-05 03:52 | -22.90346 | -43.21630 | 1840 ft | 190 kts | 110° |
| 2026-05-05 03:52 | -22.90895 | -43.20337 | 1589 ft | 188 kts | 123° |
| 2026-05-05 03:52 | -22.91912 | -43.19525 | 1339 ft | 180 kts | 157° |
| 2026-05-05 03:53 | -22.93059 | -43.19129 | 1120 ft | 165 kts | 160° |
| 2026-05-05 03:53 | -22.93996 | -43.18573 | 885 ft | 151 kts | 131° |
| 2026-05-05 03:53 | -22.94311 | -43.17581 | 637 ft | 133 kts | 83° |
| 2026-05-05 03:53 | -22.93966 | -43.16692 | 421 ft | 127 kts | 54° |
| 2026-05-05 03:54 | -22.93281 | -43.16117 | 199 ft | 131 kts | 12° |
| 2026-05-05 03:54 | -22.92355 | -43.16245 | 304 ft | 144 kts | 356° |
| 2026-05-05 03:54 | -22.91274 | -43.16318 | 895 ft | 166 kts | 358° |
| 2026-05-05 03:54 | -22.90056 | -43.16379 | 1654 ft | 183 kts | 358° |
| 2026-05-05 03:55 | -22.88749 | -43.16331 | 2376 ft | 192 kts | 11° |
| 2026-05-05 03:55 | -22.87522 | -43.15621 | 2848 ft | 217 kts | 44° |
| 2026-05-05 03:55 | -22.86745 | -43.14100 | 3319 ft | 249 kts | 75° |
| 2026-05-05 03:55 | -22.86726 | -43.12142 | 3991 ft | 272 kts | 95° |
| 2026-05-05 03:56 | -22.86983 | -43.10028 | 4686 ft | 294 kts | 99° |
| 2026-05-05 03:56 | -22.87601 | -43.07854 | 5284 ft | 305 kts | 116° |
| 2026-05-05 03:56 | -22.88648 | -43.05969 | 5475 ft | 279 kts | 126° |
| 2026-05-05 03:56 | -22.89775 | -43.04314 | 5514 ft | 269 kts | 127° |
| 2026-05-05 03:57 | -22.90885 | -43.02688 | 5520 ft | 267 kts | 127° |
| 2026-05-05 03:57 | -22.91960 | -43.01052 | 5520 ft | 267 kts | 126° |
| 2026-05-05 03:57 | -22.93007 | -42.99391 | 5520 ft | 266 kts | 124° |
| 2026-05-05 03:57 | -22.94027 | -42.97716 | 5520 ft | 266 kts | 124° |
| 2026-05-05 03:58 | -22.95033 | -42.96027 | 5522 ft | 267 kts | 123° |
| 2026-05-05 03:58 | -22.96032 | -42.94332 | 5521 ft | 266 kts | 123° |
| 2026-05-05 03:58 | -22.97026 | -42.92635 | 5521 ft | 267 kts | 123° |
| 2026-05-05 03:58 | -22.98017 | -42.90934 | 5520 ft | 266 kts | 123° |
| 2026-05-05 03:59 | -22.99005 | -42.89234 | 5521 ft | 267 kts | 123° |
| 2026-05-05 03:59 | -22.99993 | -42.87535 | 5520 ft | 263 kts | 123° |
| 2026-05-05 03:59 | -23.00980 | -42.85957 | 5518 ft | 244 kts | 133° |
| 2026-05-05 03:59 | -23.02266 | -42.84886 | 5523 ft | 234 kts | 156° |
| 2026-05-05 04:00 | -23.03821 | -42.84454 | 5526 ft | 231 kts | 179° |
| 2026-05-05 04:00 | -23.05365 | -42.84710 | 5528 ft | 227 kts | 203° |
| 2026-05-05 04:00 | -23.06692 | -42.85583 | 5524 ft | 223 kts | 223° |
| 2026-05-05 04:00 | -23.07793 | -42.86709 | 5525 ft | 225 kts | 225° |
| 2026-05-05 04:01 | -23.08931 | -42.87873 | 5522 ft | 225 kts | 224° |
| 2026-05-05 04:01 | -23.10075 | -42.89039 | 5517 ft | 225 kts | 224° |
| 2026-05-05 04:01 | -23.11066 | -42.90322 | 5207 ft | 222 kts | 244° |
| 2026-05-05 04:01 | -23.11418 | -42.91936 | 4838 ft | 222 kts | 272° |
| 2026-05-05 04:02 | -23.11250 | -42.93599 | 4500 ft | 222 kts | 278° |
| 2026-05-05 04:02 | -23.11063 | -42.95259 | 4182 ft | 222 kts | 279° |
| 2026-05-05 04:02 | -23.10880 | -42.96918 | 3876 ft | 221 kts | 279° |
| 2026-05-05 04:02 | -23.10698 | -42.98578 | 3554 ft | 222 kts | 278° |
| 2026-05-05 04:03 | -23.10515 | -43.00246 | 3215 ft | 222 kts | 280° |
| 2026-05-05 04:03 | -23.10330 | -43.01916 | 2893 ft | 223 kts | 280° |
| 2026-05-05 04:03 | -23.10145 | -43.03587 | 2554 ft | 223 kts | 280° |
| 2026-05-05 04:03 | -23.09961 | -43.05252 | 2290 ft | 221 kts | 280° |
| 2026-05-05 04:04 | -23.09782 | -43.06888 | 2139 ft | 214 kts | 279° |
| 2026-05-05 04:04 | -23.09603 | -43.08461 | 2041 ft | 206 kts | 282° |
| 2026-05-05 04:04 | -23.09090 | -43.09864 | 2020 ft | 198 kts | 307° |
| 2026-05-05 04:04 | -23.08129 | -43.10894 | 2017 ft | 194 kts | 329° |
| 2026-05-05 04:05 | -23.06894 | -43.11416 | 2013 ft | 190 kts | 352° |
| 2026-05-05 04:05 | -23.05582 | -43.11608 | 2019 ft | 191 kts | 354° |
| 2026-05-05 04:05 | -23.04268 | -43.11804 | 2022 ft | 189 kts | 353° |
| 2026-05-05 04:05 | -23.02965 | -43.12001 | 2017 ft | 189 kts | 353° |
| 2026-05-05 04:06 | -23.01667 | -43.12198 | 2041 ft | 182 kts | 353° |
| 2026-05-05 04:06 | -23.00417 | -43.12390 | 2025 ft | 180 kts | 353° |
| 2026-05-05 04:06 | -22.99194 | -43.12578 | 1846 ft | 176 kts | 354° |
| 2026-05-05 04:06 | -22.97986 | -43.12767 | 1495 ft | 173 kts | 354° |
| 2026-05-05 04:07 | -22.96855 | -43.12956 | 1284 ft | 153 kts | 353° |
| 2026-05-05 04:07 | -22.95942 | -43.13414 | 1069 ft | 145 kts | 326° |
| 2026-05-05 04:07 | -22.95279 | -43.14208 | 799 ft | 140 kts | 315° |
| 2026-05-05 04:07 | -22.94665 | -43.15015 | 606 ft | 137 kts | 313° |
| 2026-05-05 04:08 | -22.93997 | -43.15755 | 461 ft | 138 kts | 323° |
| 2026-05-05 04:08 | -22.93133 | -43.16138 | 325 ft | 133 kts | 354° |
| 2026-05-05 04:08 | -22.92211 | -43.16220 | 153 ft | 132 kts | 1° |
| 2026-05-05 04:08 | -22.91302 | -43.16266 | 26 ft | 122 kts | 358° |
| 2026-05-05 04:09 | -22.90719 | -43.16304 | 28 ft | 52 kts | 356° |
| 2026-05-05 04:09 | -22.90509 | -43.16324 | 28 ft | 12 kts | 335° |
| 2026-05-05 04:09 | -22.90492 | -43.16409 | 28 ft | 13 kts | 264° |
| 2026-05-05 04:09 | -22.90498 | -43.16502 | 30 ft | 12 kts | 267° |
| 2026-05-05 04:10 | -22.90550 | -43.16556 | 30 ft | 12 kts | 176° |
| 2026-05-05 04:10 | -22.90641 | -43.16549 | 30 ft | 14 kts | 176° |
| 2026-05-05 04:10 | -22.90742 | -43.16543 | 30 ft | 15 kts | 177° |
| 2026-05-05 04:10 | -22.90850 | -43.16547 | 30 ft | 16 kts | 178° |
| 2026-05-05 04:11 | -22.90967 | -43.16542 | 30 ft | 17 kts | 177° |
| 2026-05-05 04:11 | -22.91091 | -43.16528 | 30 ft | 17 kts | 167° |
| 2026-05-05 04:11 | -22.91160 | -43.16517 | 30 ft | 5 kts | 184° |
| 2026-05-05 04:11 | -22.91168 | -43.16540 | 30 ft | 4 kts | 259° |
| 2026-05-05 04:12 | -22.91170 | -43.16572 | 30 ft | 3 kts | 267° |
| 2026-05-05 04:12 | -22.91170 | -43.16581 | 30 ft | 0 kts | 267° |
| 2026-05-05 04:12 | -22.91171 | -43.16584 | 30 ft | 1 kts | 266° |
| 2026-05-05 04:12 | -22.91171 | -43.16585 | 30 ft | 0 kts | 266° |